Time;durP1;ratioP1;P1;durP2;ratioP2;P2;SDS_P1;SDS_P2;PMS_P1;PMS_P2;Temp;Humidity;BMP_temperature;BMP_pressure;BME280_temperature;BME280_humidity;BME280_pressure;Samples;Min_cycle;Max_cycle;Signal;HPM_P1;HPM_P2
2023/05/01 00:00:48;;;;;;;;;;;;;;;9.49;78.81;95163.72;5094247;28;1020;-54
2023/05/01 00:03:16;;;;;;;;;;;;;;;9.44;79.03;95161.47;5094018;28;1104;-55
2023/05/01 00:05:43;;;;;;;;;;;;;;;9.62;78.18;95160.63;5094011;28;1049;-55
2023/05/01 00:08:10;;;;;;;;;;;;;;;9.68;77.67;95160.03;5093883;28;1913;-55
2023/05/01 00:10:36;;;;;;;;;;;;;;;9.74;78.34;95159.41;5093860;28;965;-55
2023/05/01 00:13:03;;;;;;;;;;;;;;;9.54;78.58;95159.59;5094130;28;1059;-54
2023/05/01 00:15:29;;;;;;;;;;;;;;;9.57;78.39;95158.44;5073468;28;1909;-54
2023/05/01 00:17:55;;;;;;;;;;;;;;;9.76;77.62;95165.41;5072265;28;1180;-55
2023/05/01 00:20:24;;;;;;;;;;;;;;;9.89;77.04;95157.00;5073419;28;1132;-55
2023/05/01 00:22:50;;;;;;;;;;;;;;;9.84;77.57;95162.78;5072704;28;989;-55
2023/05/01 00:25:17;;;;;;;;;;;;;;;9.60;78.63;95167.94;5073797;28;1015;-55
2023/05/01 00:27:43;;;;;;;;;;;;;;;9.52;79.19;95169.59;5073564;28;1059;-55
2023/05/01 00:30:09;;;;;;;;;;;;;;;9.68;78.61;95168.03;5073536;28;1967;-54
2023/05/01 00:32:35;;;;;;;;;;;;;;;9.80;78.42;95163.28;5073306;28;1901;-55
2023/05/01 00:35:01;;;;;;;;;;;;;;;9.72;78.78;95172.91;5073400;28;1108;-54
2023/05/01 00:37:27;;;;;;;;;;;;;;;9.73;79.10;95171.06;5073311;28;1351;-54
2023/05/01 00:39:53;;;;;;;;;;;;;;;9.64;79.09;95178.19;5072085;28;1133;-55
2023/05/01 00:42:19;;;;;;;;;;;;;;;9.73;78.74;95179.06;5073416;28;985;-55
2023/05/01 00:44:45;;;;;;;;;;;;;;;9.66;79.14;95178.88;5073289;28;1045;-55
2023/05/01 00:47:11;;;;;;;;;;;;;;;9.52;79.64;95180.25;5073368;28;975;-55
2023/05/01 00:49:40;;;;;;;;;;;;;;;9.52;80.12;95190.06;5073183;28;1902;-55
2023/05/01 00:52:08;;;;;;;;;;;;;;;9.63;79.50;95183.66;5073228;28;993;-55
2023/05/01 00:54:35;;;;;;;;;;;;;;;9.61;79.20;95180.31;5073358;28;1064;-55
2023/05/01 00:57:01;;;;;;;;;;;;;;;9.48;79.82;95186.03;5073369;28;1059;-55
2023/05/01 00:59:28;;;;;;;;;;;;;;;9.30;80.75;95178.06;5073054;28;1120;-55
2023/05/01 01:01:54;;;;;;;;;;;;;;;9.33;81.12;95181.25;5073115;28;1089;-55
2023/05/01 01:04:21;;;;;;;;;;;;;;;9.28;81.11;95182.72;5073101;28;976;-54
2023/05/01 01:07:10;;;;;;;;;;;;;;;9.13;81.52;95179.72;5073047;28;1062;-55
2023/05/01 01:09:36;;;;;;;;;;;;;;;9.10;81.73;95183.50;5044528;28;1995;-55
2023/05/01 01:12:08;;;;;;;;;;;;;;;9.03;81.81;95186.94;5073171;28;969;-54
2023/05/01 01:14:34;;;;;;;;;;;;;;;8.97;81.91;95186.56;5085494;28;1627;-55
2023/05/01 01:17:06;;;;;;;;;;;;;;;9.05;81.33;95185.81;5093100;28;1092;-55
2023/05/01 01:19:35;;;;;;;;;;;;;;;9.18;80.69;95183.63;5093038;28;1104;-55
2023/05/01 01:22:06;;;;;;;;;;;;;;;9.25;80.58;95188.34;5093348;28;1044;-54
2023/05/01 01:24:32;;;;;;;;;;;;;;;9.29;80.14;95187.88;5091957;28;1016;-54
2023/05/01 01:27:17;;;;;;;;;;;;;;;9.27;80.05;95189.84;5093052;28;1073;-55
2023/05/01 01:30:02;;;;;;;;;;;;;;;9.05;80.97;95193.81;5092912;28;1905;-54
2023/05/01 01:32:38;;;;;;;;;;;;;;;8.98;81.19;95188.22;5093152;28;1020;-54
2023/05/01 01:35:15;;;;;;;;;;;;;;;8.72;81.62;95192.59;5095897;28;1060;-54
2023/05/01 01:37:59;;;;;;;;;;;;;;;8.67;81.92;95192.19;5096861;28;1036;-54
2023/05/01 01:40:30;;;;;;;;;;;;;;;8.56;81.38;95206.56;5096702;28;1144;-55
2023/05/01 01:43:01;;;;;;;;;;;;;;;8.37;82.56;95205.63;5097032;28;1063;-55
2023/05/01 01:45:36;;;;;;;;;;;;;;;8.40;82.60;95197.38;5096767;28;1029;-55
2023/05/01 01:48:04;;;;;;;;;;;;;;;8.50;82.56;95197.34;5096564;28;1914;-55
2023/05/01 01:50:30;;;;;;;;;;;;;;;8.49;82.28;95194.81;5096503;28;969;-55
2023/05/01 01:52:59;;;;;;;;;;;;;;;8.49;82.79;95193.00;5096495;28;1035;-55
2023/05/01 01:55:28;;;;;;;;;;;;;;;8.43;82.85;95201.59;5096389;28;1053;-55
2023/05/01 01:57:55;;;;;;;;;;;;;;;8.28;83.11;95192.34;5095459;28;961;-55
2023/05/01 02:00:21;;;;;;;;;;;;;;;8.34;82.60;95197.91;5096297;28;1290;-55
2023/05/01 02:02:48;;;;;;;;;;;;;;;8.31;81.89;95197.38;5096359;28;1566;-55
2023/05/01 02:05:16;;;;;;;;;;;;;;;8.17;82.64;95196.03;5096384;28;1012;-55
2023/05/01 02:07:44;;;;;;;;;;;;;;;8.18;82.60;95200.38;5096149;28;1250;-55
2023/05/01 02:10:12;;;;;;;;;;;;;;;8.16;82.76;95199.69;5096268;28;1906;-55
2023/05/01 02:12:39;;;;;;;;;;;;;;;8.23;82.57;95197.28;5096211;28;969;-55
2023/05/01 02:15:06;;;;;;;;;;;;;;;8.24;82.29;95197.13;5096049;28;1531;-55
2023/05/01 02:17:34;;;;;;;;;;;;;;;8.12;82.87;95203.59;5095828;28;1223;-55
2023/05/01 02:20:02;;;;;;;;;;;;;;;7.94;83.08;95212.34;5096018;28;1028;-55
2023/05/01 02:22:29;;;;;;;;;;;;;;;8.10;82.87;95205.56;5094654;28;1101;-55
2023/05/01 02:24:56;;;;;;;;;;;;;;;8.18;82.60;95200.38;5095865;28;1516;-55
2023/05/01 02:27:23;;;;;;;;;;;;;;;7.97;82.30;95209.41;5095846;28;1012;-54
2023/05/01 02:29:52;;;;;;;;;;;;;;;7.85;83.30;95202.53;5095816;28;2001;-55
2023/05/01 02:32:18;;;;;;;;;;;;;;;7.92;82.62;95198.34;5095662;28;1101;-55
2023/05/01 02:34:44;;;;;;;;;;;;;;;7.99;82.41;95196.78;5095639;28;1033;-55
2023/05/01 02:37:11;;;;;;;;;;;;;;;7.94;82.49;95196.38;5095899;28;1139;-54
2023/05/01 02:39:38;;;;;;;;;;;;;;;7.91;82.58;95202.00;5095736;28;977;-55
2023/05/01 02:42:05;;;;;;;;;;;;;;;7.75;82.51;95197.25;5095568;28;1061;-55
2023/05/01 02:44:36;;;;;;;;;;;;;;;7.70;83.49;95198.66;5095579;28;1063;-55
2023/05/01 02:47:02;;;;;;;;;;;;;;;7.63;84.21;95209.88;5094596;28;1045;-55
2023/05/01 02:49:30;;;;;;;;;;;;;;;7.84;83.93;95203.53;5095210;28;1988;-55
2023/05/01 02:51:56;;;;;;;;;;;;;;;7.91;84.11;95215.31;5095553;28;1052;-55
2023/05/01 02:54:22;;;;;;;;;;;;;;;7.93;83.21;95215.16;5095252;28;1100;-55
2023/05/01 02:56:48;;;;;;;;;;;;;;;7.75;82.92;95217.72;5095433;28;977;-56
2023/05/01 02:59:15;;;;;;;;;;;;;;;7.73;83.18;95217.84;5095322;28;1028;-55
2023/05/01 03:01:41;;;;;;;;;;;;;;;7.59;83.44;95226.28;5095129;28;1024;-56
2023/05/01 03:04:07;;;;;;;;;;;;;;;7.63;83.38;95222.34;5095325;28;1039;-56
2023/05/01 03:06:33;;;;;;;;;;;;;;;7.78;83.44;95236.06;5095286;28;965;-56
2023/05/01 03:08:59;;;;;;;;;;;;;;;7.80;82.72;95239.44;5094991;28;2021;-56
2023/05/01 03:11:25;;;;;;;;;;;;;;;7.70;82.81;95239.44;5094913;28;1101;-56
2023/05/01 03:13:51;;;;;;;;;;;;;;;7.27;82.76;95237.19;5094843;28;1609;-56
2023/05/01 03:16:17;;;;;;;;;;;;;;;7.11;84.09;95230.56;5094778;28;1096;-56
2023/05/01 03:18:43;;;;;;;;;;;;;;;7.29;84.06;95237.91;5094824;28;1039;-56
2023/05/01 03:21:11;;;;;;;;;;;;;;;7.03;84.14;95236.56;5093666;28;1029;-55
2023/05/01 03:23:37;;;;;;;;;;;;;;;7.06;84.70;95245.25;5094864;28;981;-55
2023/05/01 03:26:03;;;;;;;;;;;;;;;7.21;84.56;95242.09;5094716;28;1029;-56
2023/05/01 03:28:29;;;;;;;;;;;;;;;7.31;84.60;95241.25;5094570;28;1905;-56
2023/05/01 03:30:55;;;;;;;;;;;;;;;7.39;84.89;95244.06;5094708;28;973;-56
2023/05/01 03:33:21;;;;;;;;;;;;;;;7.46;84.59;95239.03;5093635;28;972;-56
2023/05/01 03:35:47;;;;;;;;;;;;;;;7.62;84.05;95245.44;5094544;28;1077;-56
2023/05/01 03:38:13;;;;;;;;;;;;;;;7.74;83.86;95240.84;5094658;28;977;-55
2023/05/01 03:40:39;;;;;;;;;;;;;;;7.79;83.69;95243.88;5094511;28;941;-56
2023/05/01 03:43:06;;;;;;;;;;;;;;;7.70;83.41;95242.09;5094549;28;1214;-55
2023/05/01 03:45:32;;;;;;;;;;;;;;;7.68;83.88;95237.88;5094272;28;1203;-54
2023/05/01 03:47:58;;;;;;;;;;;;;;;7.72;84.03;95242.78;5093001;28;1913;-55
2023/05/01 03:50:24;;;;;;;;;;;;;;;7.76;84.12;95243.34;5093749;28;1056;-55
2023/05/01 03:52:50;;;;;;;;;;;;;;;7.86;84.23;95248.66;5094275;28;1120;-56
2023/05/01 03:55:16;;;;;;;;;;;;;;;8.09;83.73;95251.84;5094234;28;1075;-56
2023/05/01 03:57:42;;;;;;;;;;;;;;;8.29;82.60;95260.63;5094124;28;1048;-56
2023/05/01 04:00:10;;;;;;;;;;;;;;;8.56;81.61;95254.56;5094001;28;1049;-55
2023/05/01 04:02:36;;;;;;;;;;;;;;;8.76;80.58;95261.47;5094363;28;981;-56
2023/05/01 04:05:02;;;;;;;;;;;;;;;8.84;80.71;95268.75;5093996;28;1109;-55
2023/05/01 04:07:28;;;;;;;;;;;;;;;8.75;80.29;95273.13;5093874;28;1125;-56
2023/05/01 04:09:54;;;;;;;;;;;;;;;8.67;80.73;95273.03;5094019;28;1914;-55
2023/05/01 04:12:20;;;;;;;;;;;;;;;8.69;81.25;95260.38;5093960;28;1028;-56
2023/05/01 04:14:46;;;;;;;;;;;;;;;8.69;81.55;95264.84;5093823;28;1622;-54
2023/05/01 04:17:13;;;;;;;;;;;;;;;8.74;82.19;95268.75;5093555;28;1262;-55
2023/05/01 04:19:40;;;;;;;;;;;;;;;8.90;82.17;95272.66;5093783;28;1037;-55
2023/05/01 04:22:06;;;;;;;;;;;;;;;9.11;81.91;95269.72;5093991;28;997;-55
2023/05/01 04:24:32;;;;;;;;;;;;;;;9.46;80.38;95268.09;5093651;28;1041;-56
2023/05/01 04:26:58;;;;;;;;;;;;;;;9.65;79.79;95267.94;5093742;28;1046;-55
2023/05/01 04:29:24;;;;;;;;;;;;;;;9.55;79.57;95270.69;5093423;28;1909;-55
2023/05/01 04:31:50;;;;;;;;;;;;;;;9.51;80.87;95273.81;5093608;28;984;-55
2023/05/01 04:34:16;;;;;;;;;;;;;;;9.63;80.56;95272.59;5093575;28;1092;-55
2023/05/01 04:36:42;;;;;;;;;;;;;;;9.69;80.66;95276.47;5092632;28;1052;-55
2023/05/01 04:39:09;;;;;;;;;;;;;;;9.46;81.31;95274.25;5092524;28;1004;-56
2023/05/01 04:41:35;;;;;;;;;;;;;;;9.27;82.56;95279.72;5093561;28;1410;-55
2023/05/01 04:44:01;;;;;;;;;;;;;;;9.66;81.07;95280.31;5093471;28;1121;-54
2023/05/01 04:46:27;;;;;;;;;;;;;;;10.16;78.86;95282.41;5092144;28;1057;-55
2023/05/01 04:48:53;;;;;;;;;;;;;;;10.68;77.14;95281.63;5093589;28;1914;-55
2023/05/01 04:51:20;;;;;;;;;;;;;;;10.97;77.48;95291.13;5092209;28;1132;-55
2023/05/01 04:53:46;;;;;;;;;;;;;;;10.95;78.80;95282.44;5093526;28;965;-55
2023/05/01 04:56:12;;;;;;;;;;;;;;;11.26;76.76;95288.06;5093334;28;1073;-55
2023/05/01 04:58:38;;;;;;;;;;;;;;;11.36;75.53;95289.75;5093442;28;1014;-55
2023/05/01 05:01:04;;;;;;;;;;;;;;;11.52;74.20;95289.81;5093305;28;1036;-55
2023/05/01 05:03:30;;;;;;;;;;;;;;;11.66;73.14;95285.66;5093165;28;1041;-55
2023/05/01 05:05:56;;;;;;;;;;;;;;;11.80;73.17;95290.38;5093239;28;1041;-55
2023/05/01 05:08:22;;;;;;;;;;;;;;;12.01;73.08;95289.06;5092197;28;1914;-55
2023/05/01 05:10:48;;;;;;;;;;;;;;;11.94;72.53;95290.78;5097306;28;1073;-55
2023/05/01 05:13:14;;;;;;;;;;;;;;;12.19;72.74;95299.66;5097129;28;1539;-55
2023/05/01 05:15:40;;;;;;;;;;;;;;;12.27;72.76;95296.97;5097193;28;1052;-55
2023/05/01 05:18:06;;;;;;;;;;;;;;;12.36;72.95;95304.00;5096928;28;1266;-56
2023/05/01 05:20:36;;;;;;;;;;;;;;;12.22;72.24;95305.50;5097042;28;1128;-56
2023/05/01 05:23:02;;;;;;;;;;;;;;;12.07;72.79;95299.16;5097277;28;1047;-56
2023/05/01 05:25:28;;;;;;;;;;;;;;;12.36;72.86;95309.34;5097104;28;1039;-55
2023/05/01 05:27:54;;;;;;;;;;;;;;;12.53;70.19;95304.00;5097116;28;1012;-56
2023/05/01 05:30:20;;;;;;;;;;;;;;;12.86;70.00;95307.44;5096670;28;1989;-56
2023/05/01 05:32:47;;;;;;;;;;;;;;;13.16;69.47;95310.38;5097107;28;1036;-56
2023/05/01 05:35:13;;;;;;;;;;;;;;;13.18;68.65;95317.25;5096980;28;1047;-55
2023/05/01 05:37:39;;;;;;;;;;;;;;;13.25;68.22;95312.88;5096913;28;1016;-56
2023/05/01 05:40:05;;;;;;;;;;;;;;;13.75;66.14;95310.81;5096854;28;1033;-57
2023/05/01 05:42:31;;;;;;;;;;;;;;;13.57;64.29;95308.41;5096696;28;1112;-56
2023/05/01 05:44:57;;;;;;;;;;;;;;;13.65;66.13;95307.50;5096619;28;989;-56
2023/05/01 05:47:23;;;;;;;;;;;;;;;13.79;64.88;95312.16;5096725;28;1028;-56
2023/05/01 05:49:49;;;;;;;;;;;;;;;14.18;64.09;95315.75;5096445;28;1992;-56
2023/05/01 05:52:16;;;;;;;;;;;;;;;14.48;64.16;95315.88;5096175;28;1037;-56
2023/05/01 05:54:42;;;;;;;;;;;;;;;14.59;62.42;95308.22;5096633;28;976;-56
2023/05/01 05:57:08;;;;;;;;;;;;;;;14.64;62.72;95319.28;5096457;28;1033;-57
2023/05/01 05:59:35;;;;;;;;;;;;;;;14.94;60.40;95327.38;5096259;28;1052;-57
2023/05/01 06:02:01;;;;;;;;;;;;;;;14.64;60.26;95319.28;5096371;28;1061;-57
2023/05/01 06:04:27;;;;;;;;;;;;;;;14.74;60.69;95324.41;5096174;28;1054;-57
2023/05/01 06:06:53;;;;;;;;;;;;;;;14.61;60.51;95330.41;5096417;28;1189;-57
2023/05/01 06:09:19;;;;;;;;;;;;;;;15.24;62.14;95330.13;5096111;28;1914;-57
2023/05/01 06:11:46;;;;;;;;;;;;;;;15.26;59.17;95333.44;5096178;28;1097;-57
2023/05/01 06:14:12;;;;;;;;;;;;;;;15.41;58.92;95334.28;5095928;28;1525;-58
2023/05/01 06:16:38;;;;;;;;;;;;;;;15.66;58.44;95335.84;5095844;28;1226;-58
2023/05/01 06:19:05;;;;;;;;;;;;;;;15.86;58.69;95336.09;5096213;28;1000;-57
2023/05/01 06:21:32;;;;;;;;;;;;;;;16.22;57.53;95340.66;5094554;28;1034;-57
2023/05/01 06:23:58;;;;;;;;;;;;;;;16.67;56.78;95335.91;5096032;28;1043;-57
2023/05/01 06:26:25;;;;;;;;;;;;;;;16.56;57.04;95334.56;5095742;28;964;-58
2023/05/01 06:28:53;;;;;;;;;;;;;;;16.38;56.12;95338.53;5095704;28;1992;-58
2023/05/01 06:31:20;;;;;;;;;;;;;;;16.91;56.36;95330.13;5094743;28;997;-56
2023/05/01 06:33:47;;;;;;;;;;;;;;;17.16;55.48;95335.91;5095962;28;1048;-56
2023/05/01 06:36:13;;;;;;;;;;;;;;;17.01;54.92;95335.16;5095727;28;965;-56
2023/05/01 06:38:43;;;;;;;;;;;;;;;17.14;54.57;95329.84;5095738;28;986;-57
2023/05/01 06:41:09;;;;;;;;;;;;;;;17.26;53.96;95326.59;5095603;28;993;-53
2023/05/01 06:43:35;;;;;;;;;;;;;;;17.33;52.92;95322.91;5095524;28;1012;-57
2023/05/01 06:46:01;;;;;;;;;;;;;;;17.72;51.83;95334.97;5095690;28;985;-57
2023/05/01 06:48:27;;;;;;;;;;;;;;;17.90;51.98;95328.22;5095481;28;1931;-57
2023/05/01 06:50:54;;;;;;;;;;;;;;;18.47;51.28;95323.38;5095529;28;993;-57
2023/05/01 06:53:20;;;;;;;;;;;;;;;19.00;50.84;95333.44;5095402;28;1009;-57
2023/05/01 06:55:46;;;;;;;;;;;;;;;19.27;49.89;95324.25;5095327;28;1044;-57
2023/05/01 06:58:12;;;;;;;;;;;;;;;19.26;48.81;95327.97;5095397;28;1042;-57
2023/05/01 07:00:38;;;;;;;;;;;;;;;19.23;50.20;95324.84;5095442;28;1020;-57
2023/05/01 07:03:04;;;;;;;;;;;;;;;19.55;47.89;95331.25;5095332;28;977;-57
2023/05/01 07:05:30;;;;;;;;;;;;;;;20.02;48.02;95326.53;5095183;28;1298;-57
2023/05/01 07:07:56;;;;;;;;;;;;;;;19.91;48.00;95331.81;5095156;28;961;-57
2023/05/01 07:10:23;;;;;;;;;;;;;;;19.94;47.27;95323.22;5094886;28;1978;-57
2023/05/01 07:12:49;;;;;;;;;;;;;;;20.33;47.00;95335.75;5094948;28;1080;-57
2023/05/01 07:15:15;;;;;;;;;;;;;;;20.60;46.07;95324.75;5094795;28;1543;-57
2023/05/01 07:17:42;;;;;;;;;;;;;;;20.64;45.13;95326.84;5094801;28;1085;-57
2023/05/01 07:20:09;;;;;;;;;;;;;;;20.53;45.13;95332.94;5094823;28;1616;-57
2023/05/01 07:22:35;;;;;;;;;;;;;;;20.38;44.63;95341.38;5094863;28;1336;-57
2023/05/01 07:25:02;;;;;;;;;;;;;;;20.73;46.82;95326.56;5093791;28;1465;-57
2023/05/01 07:27:28;;;;;;;;;;;;;;;20.80;45.37;95336.31;5094629;28;1033;-57
2023/05/01 07:29:55;;;;;;;;;;;;;;;20.90;46.43;95324.13;5094770;28;1897;-57
2023/05/01 07:32:21;;;;;;;;;;;;;;;21.04;44.66;95337.41;5094283;28;1016;-57
2023/05/01 07:34:47;;;;;;;;;;;;;;;20.64;45.25;95328.69;5094654;28;1037;-57
2023/05/01 07:37:13;;;;;;;;;;;;;;;20.80;44.96;95339.03;5093200;28;929;-56
2023/05/01 07:39:39;;;;;;;;;;;;;;;21.22;45.25;95328.44;5094455;28;1136;-58
2023/05/01 07:42:05;;;;;;;;;;;;;;;21.51;45.27;95325.28;5094353;28;1056;-56
2023/05/01 07:44:31;;;;;;;;;;;;;;;21.49;45.25;95320.06;5094536;28;1045;-56
2023/05/01 07:47:04;;;;;;;;;;;;;;;21.33;44.25;95328.78;5094297;28;1144;-56
2023/05/01 07:49:37;;;;;;;;;;;;;;;21.58;45.47;95324.16;5094291;28;1992;-56
2023/05/01 07:52:04;;;;;;;;;;;;;;;21.82;43.79;95327.03;5094300;28;1033;-56
2023/05/01 07:54:30;;;;;;;;;;;;;;;21.69;44.10;95332.63;5094054;28;957;-56
2023/05/01 07:56:56;;;;;;;;;;;;;;;22.03;44.77;95329.28;5094198;28;1108;-56
2023/05/01 07:59:22;;;;;;;;;;;;;;;22.38;43.88;95327.81;5093993;28;1219;-56
2023/05/01 08:01:48;;;;;;;;;;;;;;;22.47;43.12;95328.34;5094163;28;961;-56
2023/05/01 08:04:15;;;;;;;;;;;;;;;22.35;43.54;95331.84;5093938;28;957;-56
2023/05/01 08:06:41;;;;;;;;;;;;;;;21.85;42.54;95323.84;5093354;28;1068;-56
2023/05/01 08:09:08;;;;;;;;;;;;;;;22.18;43.81;95322.63;5093501;28;1991;-56
2023/05/01 08:11:34;;;;;;;;;;;;;;;22.04;41.14;95332.81;5093663;28;1111;-56
2023/05/01 08:14:00;;;;;;;;;;;;;;;22.54;43.74;95318.19;5093641;28;1256;-56
2023/05/01 08:20:24;;;;;;;;;;;;;;;22.65;41.50;95321.97;5090070;28;1165;-56
2023/05/01 08:22:52;;;;;;;;;;;;;;;22.85;41.87;95321.69;5093826;28;1180;-57
2023/05/01 08:25:18;;;;;;;;;;;;;;;22.96;40.77;95318.16;5093864;28;1016;-56
2023/05/01 08:27:44;;;;;;;;;;;;;;;23.12;39.77;95327.56;5093704;28;1118;-56
2023/05/01 08:30:10;;;;;;;;;;;;;;;23.14;40.87;95318.06;5093569;28;1987;-56
2023/05/01 08:32:36;;;;;;;;;;;;;;;23.28;39.97;95318.69;5093708;28;1104;-56
2023/05/01 08:35:02;;;;;;;;;;;;;;;23.57;40.55;95319.63;5093622;28;1029;-56
2023/05/01 08:37:29;;;;;;;;;;;;;;;23.65;39.57;95317.59;5093763;28;1069;-55
2023/05/01 08:39:55;;;;;;;;;;;;;;;23.24;39.06;95328.41;5093741;28;1044;-55
2023/05/01 08:42:21;;;;;;;;;;;;;;;23.37;39.12;95324.59;5093647;28;1040;-56
2023/05/01 08:44:48;;;;;;;;;;;;;;;23.50;39.23;95321.63;5091581;28;961;-56
2023/05/01 08:47:17;;;;;;;;;;;;;;;23.71;38.99;95311.19;5093782;28;1036;-56
2023/05/01 08:49:44;;;;;;;;;;;;;;;23.77;39.59;95308.34;5093451;28;1909;-56
2023/05/01 08:52:11;;;;;;;;;;;;;;;23.65;38.25;95312.97;5093472;28;1064;-55
2023/05/01 08:54:38;;;;;;;;;;;;;;;23.57;38.56;95303.25;5093466;28;1124;-56
2023/05/01 08:57:05;;;;;;;;;;;;;;;23.86;38.09;95303.34;5093449;28;964;-56
2023/05/01 08:59:35;;;;;;;;;;;;;;;24.07;38.90;95307.31;5093730;28;1020;-56
2023/05/01 09:02:03;;;;;;;;;;;;;;;24.14;38.77;95299.00;5093609;28;1028;-55
2023/05/01 09:04:39;;;;;;;;;;;;;;;23.81;36.38;95313.34;5092230;28;1036;-56
2023/05/01 09:07:05;;;;;;;;;;;;;;;23.46;34.10;95317.72;5093520;28;1019;-56
2023/05/01 09:09:32;;;;;;;;;;;;;;;23.56;35.53;95312.53;5093227;28;2246;-56
2023/05/01 09:12:00;;;;;;;;;;;;;;;23.81;35.97;95316.91;5093298;28;987;-56
2023/05/01 09:14:30;;;;;;;;;;;;;;;23.97;35.43;95320.78;5093305;28;1108;-56
2023/05/01 09:16:57;;;;;;;;;;;;;;;24.04;36.59;95307.00;5093529;28;1031;-56
2023/05/01 09:19:24;;;;;;;;;;;;;;;23.99;33.83;95312.38;5093105;28;1057;-56
2023/05/01 09:21:50;;;;;;;;;;;;;;;23.76;31.99;95316.75;5093252;28;1028;-56
2023/05/01 09:24:16;;;;;;;;;;;;;;;23.31;34.25;95310.03;5093142;28;973;-54
2023/05/01 09:26:42;;;;;;;;;;;;;;;23.52;33.29;95305.88;5093431;28;980;-56
2023/05/01 09:29:09;;;;;;;;;;;;;;;23.35;31.79;95308.50;5093326;28;1909;-56
2023/05/01 09:31:35;;;;;;;;;;;;;;;23.26;35.80;95300.88;5093154;28;1041;-56
2023/05/01 09:34:02;;;;;;;;;;;;;;;23.65;34.05;95298.50;5093269;28;1052;-56
2023/05/01 09:36:30;;;;;;;;;;;;;;;23.79;33.97;95289.03;5093226;28;1031;-55
2023/05/01 09:38:56;;;;;;;;;;;;;;;24.19;36.44;95285.47;5092911;28;1053;-56
2023/05/01 09:41:23;;;;;;;;;;;;;;;24.30;31.80;95290.06;5093183;28;981;-56
2023/05/01 09:43:50;;;;;;;;;;;;;;;24.20;34.24;95292.56;5093036;28;1074;-57
2023/05/01 09:46:16;;;;;;;;;;;;;;;24.16;34.59;95284.03;5093078;28;1104;-59
2023/05/01 09:48:55;;;;;;;;;;;;;;;24.32;35.18;95279.72;5092951;28;1910;-59
2023/05/01 09:51:31;;;;;;;;;;;;;;;24.32;35.55;95276.13;5093041;28;1036;-60
2023/05/01 09:53:59;;;;;;;;;;;;;;;24.23;34.31;95270.25;5093265;28;973;-58
2023/05/01 09:56:26;;;;;;;;;;;;;;;24.17;35.40;95268.50;5096215;28;1112;-58
2023/05/01 09:58:53;;;;;;;;;;;;;;;24.07;33.86;95268.28;5096768;28;957;-58
2023/05/01 10:01:38;;;;;;;;;;;;;;;23.67;34.18;95261.69;5096678;28;1047;-58
2023/05/01 10:04:04;;;;;;;;;;;;;;;23.47;33.81;95264.00;5096475;28;1047;-58
2023/05/01 10:06:30;;;;;;;;;;;;;;;23.83;33.73;95265.63;5096603;28;977;-59
2023/05/01 10:08:56;;;;;;;;;;;;;;;23.95;32.43;95266.41;5096329;28;2004;-58
2023/05/01 10:11:23;;;;;;;;;;;;;;;24.34;33.27;95263.06;5096564;28;1036;-61
2023/05/01 10:14:05;;;;;;;;;;;;;;;24.33;32.55;95264.97;5096293;28;1189;-58
2023/05/01 10:16:33;;;;;;;;;;;;;;;24.07;32.78;95258.16;5096295;28;993;-59
2023/05/01 10:18:59;;;;;;;;;;;;;;;24.05;32.21;95264.97;5096249;28;1077;-60
2023/05/01 10:21:26;;;;;;;;;;;;;;;23.84;31.43;95264.53;5096109;28;1116;-62
2023/05/01 10:23:53;;;;;;;;;;;;;;;23.83;32.66;95262.03;5096317;28;1032;-59
2023/05/01 10:26:20;;;;;;;;;;;;;;;24.09;32.67;95249.75;5096203;28;1024;-60
2023/05/01 10:28:47;;;;;;;;;;;;;;;24.43;33.04;95245.19;5096061;28;1922;-59
2023/05/01 10:31:13;;;;;;;;;;;;;;;24.24;32.75;95235.53;5094832;28;1111;-59
2023/05/01 10:33:39;;;;;;;;;;;;;;;24.21;31.59;95242.34;5096240;28;1021;-59
2023/05/01 10:36:08;;;;;;;;;;;;;;;24.33;32.21;95240.38;5096086;28;965;-59
2023/05/01 10:38:34;;;;;;;;;;;;;;;24.34;31.44;95243.94;5096018;28;1020;-60
2023/05/01 10:41:00;;;;;;;;;;;;;;;24.33;31.14;95245.84;5095892;28;973;-60
2023/05/01 10:43:30;;;;;;;;;;;;;;;24.27;32.22;95249.53;5095766;28;1100;-60
2023/05/01 10:46:08;;;;;;;;;;;;;;;24.15;31.41;95246.88;5095662;28;1031;-60
2023/05/01 10:48:46;;;;;;;;;;;;;;;24.43;33.75;95233.44;5094393;28;1934;-60
2023/05/01 10:51:13;;;;;;;;;;;;;;;24.67;31.67;95245.09;5095592;28;1030;-60
2023/05/01 10:53:40;;;;;;;;;;;;;;;24.79;31.30;95250.47;5094513;28;965;-60
2023/05/01 10:56:24;;;;;;;;;;;;;;;24.78;30.81;95241.47;5095621;28;973;-60
2023/05/01 10:59:03;;;;;;;;;;;;;;;24.62;30.34;95234.06;5095658;28;969;-59
2023/05/01 11:01:33;;;;;;;;;;;;;;;24.32;30.33;95235.13;5095012;28;2722;-60
2023/05/01 11:04:03;;;;;;;;;;;;;;;23.86;30.52;95240.56;5094164;28;1056;-60
2023/05/01 11:06:29;;;;;;;;;;;;;;;24.19;31.08;95236.28;5094297;28;1154;-60
2023/05/01 11:08:56;;;;;;;;;;;;;;;24.47;30.38;95238.19;5094853;28;1909;-60
2023/05/01 11:11:25;;;;;;;;;;;;;;;24.45;30.82;95237.56;5095113;28;1162;-59
2023/05/01 11:13:56;;;;;;;;;;;;;;;24.55;31.60;95234.25;5095088;28;969;-60
2023/05/01 11:16:45;;;;;;;;;;;;;;;24.51;30.82;95222.09;5094965;28;1026;-59
2023/05/01 11:19:32;;;;;;;;;;;;;;;24.34;30.87;95231.09;5093435;28;1558;-60
2023/05/01 11:21:59;;;;;;;;;;;;;;;24.34;30.54;95231.09;5094684;28;1229;-60
2023/05/01 11:24:34;;;;;;;;;;;;;;;24.02;29.59;95227.19;5094923;28;1013;-60
2023/05/01 11:27:00;;;;;;;;;;;;;;;23.66;30.55;95229.22;5093552;28;988;-59
2023/05/01 11:29:31;;;;;;;;;;;;;;;22.94;32.05;95231.16;5094548;28;1906;-59
2023/05/01 11:31:58;;;;;;;;;;;;;;;22.67;31.86;95230.78;5094540;28;980;-60
2023/05/01 11:34:25;;;;;;;;;;;;;;;22.35;31.94;95227.53;5094754;28;924;-57
2023/05/01 11:36:51;;;;;;;;;;;;;;;22.22;32.47;95223.06;5093386;28;1297;-57
2023/05/01 11:39:18;;;;;;;;;;;;;;;22.64;33.44;95217.63;5094549;28;986;-57
2023/05/01 11:41:44;;;;;;;;;;;;;;;23.05;32.41;95225.94;5094399;28;1020;-58
2023/05/01 11:44:11;;;;;;;;;;;;;;;23.05;31.41;95215.03;5094404;28;976;-58
2023/05/01 11:46:37;;;;;;;;;;;;;;;23.43;31.98;95217.28;5094244;28;1025;-59
2023/05/01 11:49:04;;;;;;;;;;;;;;;23.81;31.97;95209.59;5094460;28;1906;-56
2023/05/01 11:51:30;;;;;;;;;;;;;;;23.65;32.39;95205.72;5094274;28;1112;-57
2023/05/01 11:54:00;;;;;;;;;;;;;;;23.26;32.63;95224.50;5094156;28;1038;-59
2023/05/01 11:56:26;;;;;;;;;;;;;;;22.65;34.69;95208.38;5094267;28;1028;-57
2023/05/01 11:58:53;;;;;;;;;;;;;;;22.19;36.60;95204.44;5094021;28;1047;-58
2023/05/01 12:01:19;;;;;;;;;;;;;;;22.12;37.09;95203.72;5094069;28;1055;-57
2023/05/01 12:03:45;;;;;;;;;;;;;;;22.01;36.35;95206.19;5094134;28;977;-57
2023/05/01 12:06:12;;;;;;;;;;;;;;;21.81;35.89;95206.44;5093930;28;1084;-57
2023/05/01 12:08:42;;;;;;;;;;;;;;;21.92;36.29;95193.94;5092699;28;1984;-58
2023/05/01 12:11:08;;;;;;;;;;;;;;;22.42;34.97;95199.13;5093847;28;1220;-55
2023/05/01 12:13:34;;;;;;;;;;;;;;;22.36;34.74;95208.19;5093450;28;1116;-57
2023/05/01 12:16:02;;;;;;;;;;;;;;;22.29;35.07;95204.78;5093888;28;1036;-58
2023/05/01 12:18:28;;;;;;;;;;;;;;;22.51;34.93;95205.03;5093704;28;1110;-59
2023/05/01 12:20:54;;;;;;;;;;;;;;;22.88;34.31;95207.56;5093814;28;1024;-58
2023/05/01 12:23:33;;;;;;;;;;;;;;;22.61;34.72;95224.38;5093595;28;1049;-58
2023/05/01 12:26:01;;;;;;;;;;;;;;;22.23;35.51;95211.09;5092432;28;968;-58
2023/05/01 12:28:27;;;;;;;;;;;;;;;22.47;35.07;95216.63;5093474;28;1985;-59
2023/05/01 12:31:00;;;;;;;;;;;;;;;22.53;34.80;95216.53;5093759;28;1081;-59
2023/05/01 12:33:26;;;;;;;;;;;;;;;22.42;35.29;95214.59;5092501;28;989;-59
2023/05/01 12:35:52;;;;;;;;;;;;;;;22.44;35.65;95212.47;5093410;28;996;-58
2023/05/01 12:38:19;;;;;;;;;;;;;;;22.35;36.22;95203.81;5093533;28;1027;-58
2023/05/01 12:40:55;;;;;;;;;;;;;;;22.25;36.89;95211.72;5093256;28;1041;-58
2023/05/01 12:43:28;;;;;;;;;;;;;;;22.22;36.97;95202.09;5093745;28;977;-58
2023/05/01 12:45:54;;;;;;;;;;;;;;;22.15;36.99;95208.72;5093340;28;1061;-58
2023/05/01 12:48:21;;;;;;;;;;;;;;;22.19;36.91;95213.44;5093455;28;1991;-58
2023/05/01 12:50:53;;;;;;;;;;;;;;;22.17;36.62;95207.41;5093281;28;1049;-58
2023/05/01 12:53:21;;;;;;;;;;;;;;;22.27;36.66;95208.78;5093294;28;976;-58
2023/05/01 12:55:49;;;;;;;;;;;;;;;22.63;36.03;95206.94;5093126;28;972;-58
2023/05/01 12:58:16;;;;;;;;;;;;;;;22.97;36.46;95200.69;5093256;28;988;-58
2023/05/01 13:00:45;;;;;;;;;;;;;;;23.27;36.13;95188.81;5093181;28;1025;-58
2023/05/01 13:03:12;;;;;;;;;;;;;;;23.42;34.96;95185.59;5092164;28;980;-58
2023/05/01 13:05:48;;;;;;;;;;;;;;;23.39;34.49;95203.28;5092046;28;1015;-58
2023/05/01 13:08:14;;;;;;;;;;;;;;;23.46;35.39;95189.50;5093160;28;1528;-58